createdAt,value
2017-06-05T00:00:20.056Z,12.1
2017-06-05T00:01:00.554Z,12.07
2017-06-05T00:01:40.911Z,12.08
2017-06-05T00:02:21.279Z,12.02
2017-06-05T00:03:01.738Z,12.08
2017-06-05T00:03:42.147Z,12
2017-06-05T00:04:22.608Z,12.03
2017-06-05T00:05:03.011Z,11.99
2017-06-05T00:05:43.439Z,12.02
2017-06-05T00:06:23.789Z,11.99
2017-06-05T00:07:04.212Z,11.96
2017-06-05T00:07:44.583Z,12.03
2017-06-05T00:08:25.023Z,12.03
2017-06-05T00:09:05.423Z,11.99
2017-06-05T00:09:45.820Z,12.05
2017-06-05T00:11:25.213Z,11.97
2017-06-05T00:12:07.548Z,12.05
2017-06-05T00:12:47.977Z,11.99
2017-06-05T00:13:28.439Z,12.05
2017-06-05T00:14:08.832Z,12.05
2017-06-05T00:14:49.229Z,12.02
2017-06-05T00:15:29.625Z,12
2017-06-05T00:16:10.053Z,12.07
2017-06-05T00:16:50.459Z,12
2017-06-05T00:17:30.919Z,12
2017-06-05T00:18:11.314Z,12
2017-06-05T00:18:51.739Z,11.97
2017-06-05T00:19:32.158Z,12.02
2017-06-05T00:20:12.539Z,12.02
2017-06-05T00:20:52.962Z,12.03
2017-06-05T00:21:33.311Z,12.05
2017-06-05T00:22:13.731Z,12.03
2017-06-05T00:22:54.139Z,12.03
2017-06-05T00:23:34.641Z,12.03
2017-06-05T00:24:15.067Z,12
2017-06-05T00:24:55.592Z,12.02
2017-06-05T00:25:35.984Z,12
2017-06-05T00:26:16.424Z,11.99
2017-06-05T00:26:56.838Z,12.03
2017-06-05T00:27:37.204Z,11.96
2017-06-05T00:28:17.635Z,11.95
2017-06-05T00:28:58.032Z,12.05
2017-06-05T00:29:38.456Z,12.02
2017-06-05T00:30:18.849Z,12.03
2017-06-05T00:30:59.317Z,12
2017-06-05T00:31:39.663Z,12.05
2017-06-05T00:32:20.106Z,12.03
2017-06-05T00:33:00.509Z,12.07
2017-06-05T00:33:40.870Z,12.07
2017-06-05T00:34:21.274Z,12.07
2017-06-05T00:35:01.700Z,12.07
2017-06-05T00:35:42.102Z,11.99
2017-06-05T00:36:22.492Z,11.99
2017-06-05T00:37:02.980Z,12.03
2017-06-05T00:37:43.407Z,12.02
2017-06-05T00:38:23.808Z,11.97
2017-06-05T00:39:04.184Z,12.02
2017-06-05T00:39:44.578Z,12.08
2017-06-05T00:40:24.982Z,12.07
2017-06-05T00:41:05.369Z,12.11
2017-06-05T00:41:45.796Z,12.05
2017-06-05T00:42:26.127Z,11.97
2017-06-05T00:43:06.588Z,12.1
2017-06-05T00:43:46.985Z,12.1
2017-06-05T00:44:27.396Z,12.11
2017-06-05T00:45:07.819Z,12.12
2017-06-05T00:45:48.249Z,12.15
2017-06-05T00:46:28.663Z,12.08
2017-06-05T00:47:09.062Z,12.2
2017-06-05T00:47:49.454Z,12.17
2017-06-05T00:48:29.857Z,12.17
2017-06-05T00:49:10.251Z,12.25
2017-06-05T00:49:50.668Z,12.07
2017-06-05T00:50:31.053Z,12.23
2017-06-05T00:51:11.608Z,12.25
2017-06-05T00:51:51.996Z,12.18
2017-06-05T00:52:32.331Z,12.21
2017-06-05T00:53:12.734Z,12.28
2017-06-05T00:53:53.179Z,12.26
2017-06-05T00:54:33.588Z,12.26
2017-06-05T00:55:13.920Z,12.23
2017-06-05T00:55:54.381Z,12.29
2017-06-05T00:56:34.770Z,12.25
2017-06-05T00:57:15.163Z,12.29
2017-06-05T00:57:55.618Z,12.21
2017-06-05T00:58:36.018Z,12.26
2017-06-05T00:59:16.470Z,12.36
2017-06-05T00:59:56.844Z,12.28
2017-06-05T01:00:37.251Z,12.28
2017-06-05T01:01:17.655Z,12.33
2017-06-05T01:01:58.059Z,12.3
2017-06-05T01:02:38.493Z,12.3
2017-06-05T01:03:18.915Z,12.32
2017-06-05T01:03:59.331Z,12.4
2017-06-05T01:04:39.792Z,12.32
2017-06-05T01:05:20.140Z,12.39
2017-06-05T01:06:00.519Z,12.39
2017-06-05T01:06:40.933Z,12.35
2017-06-05T01:07:21.321Z,12.4
2017-06-05T01:08:01.791Z,12.4
2017-06-05T01:08:42.194Z,12.44
2017-06-05T01:09:22.550Z,12.4
2017-06-05T01:10:03.009Z,12.39
2017-06-05T01:10:43.381Z,12.4
2017-06-05T01:11:23.807Z,12.48
2017-06-05T01:12:04.176Z,12.44
2017-06-05T01:12:44.620Z,12.47
2017-06-05T01:13:25.138Z,12.55
2017-06-05T01:14:05.521Z,12.48
2017-06-05T01:14:45.927Z,12.53
2017-06-05T01:15:26.314Z,12.53
2017-06-05T01:16:06.735Z,12.53
2017-06-05T01:16:47.178Z,12.48
2017-06-05T01:17:27.565Z,12.53
2017-06-05T01:18:07.965Z,12.54
2017-06-05T01:18:48.373Z,12.62
2017-06-05T01:19:28.793Z,12.58
2017-06-05T01:20:09.196Z,12.53
2017-06-05T01:20:49.636Z,12.47
2017-06-05T01:21:30.004Z,12.51
2017-06-05T01:22:10.420Z,12.63
2017-06-05T01:22:50.834Z,12.61
2017-06-05T01:23:31.257Z,12.53
2017-06-05T01:24:11.665Z,12.62
2017-06-05T01:24:52.038Z,12.53
2017-06-05T01:25:32.438Z,12.63
2017-06-05T01:26:12.818Z,12.61
2017-06-05T01:26:53.209Z,12.57
2017-06-05T01:27:33.662Z,12.63
2017-06-05T01:28:14.041Z,12.63
2017-06-05T01:28:54.455Z,12.65
2017-06-05T01:29:34.877Z,12.63
2017-06-05T01:30:15.287Z,12.63
2017-06-05T01:30:55.690Z,12.63
2017-06-05T01:31:36.135Z,12.7
2017-06-05T01:32:16.573Z,12.63
2017-06-05T01:32:56.935Z,12.62
2017-06-05T01:33:37.383Z,12.65
2017-06-05T01:34:17.739Z,12.62
2017-06-05T01:34:58.212Z,12.81
2017-06-05T01:35:38.615Z,12.63
2017-06-05T01:36:18.995Z,12.66
2017-06-05T01:36:59.449Z,12.68
2017-06-05T01:37:39.851Z,12.72
2017-06-05T01:38:20.202Z,12.76
2017-06-05T01:39:00.664Z,12.72
2017-06-05T01:39:41.068Z,12.76
2017-06-05T01:40:21.505Z,12.76
2017-06-05T01:41:01.883Z,12.8
2017-06-05T01:41:42.278Z,12.78
2017-06-05T01:42:22.705Z,12.8
2017-06-05T01:43:03.092Z,12.87
2017-06-05T01:43:43.537Z,12.91
2017-06-05T01:44:23.987Z,12.9
2017-06-05T01:45:04.360Z,12.93
2017-06-05T01:45:44.783Z,12.93
2017-06-05T01:46:25.190Z,12.94
2017-06-05T01:47:05.702Z,12.98
2017-06-05T01:47:46.086Z,13.05
2017-06-05T01:48:26.956Z,13.08
2017-06-05T01:49:07.346Z,12.99
2017-06-05T01:49:47.821Z,13.08
2017-06-05T01:50:28.238Z,13.13
2017-06-05T01:51:08.631Z,13.12
2017-06-05T01:51:49.055Z,13.13
2017-06-05T01:52:29.755Z,13.13
2017-06-05T01:53:10.185Z,13.11
2017-06-05T01:53:50.583Z,13.12
2017-06-05T01:54:31.030Z,13.19
2017-06-05T01:55:11.426Z,13.24
2017-06-05T01:55:51.846Z,13.31
2017-06-05T01:56:32.220Z,13.3
2017-06-05T01:57:12.633Z,13.26
2017-06-05T01:57:53.120Z,13.31
2017-06-05T01:58:33.518Z,13.28
2017-06-05T01:59:13.975Z,13.33
2017-06-05T01:59:54.364Z,13.3
2017-06-05T02:00:34.806Z,13.36
2017-06-05T02:01:15.168Z,13.3
2017-06-05T02:01:55.649Z,13.4
2017-06-05T02:02:36.047Z,13.28
2017-06-05T02:03:16.559Z,13.31
2017-06-05T02:03:56.952Z,13.37
2017-06-05T02:04:37.364Z,13.39
2017-06-05T02:05:17.939Z,13.5
2017-06-05T02:05:58.303Z,13.46
2017-06-05T02:06:38.731Z,13.5
2017-06-05T02:07:19.192Z,13.52
2017-06-05T02:07:59.614Z,13.46
2017-06-05T02:08:40.046Z,13.49
2017-06-05T02:09:20.496Z,13.52
2017-06-05T02:10:00.968Z,13.46
2017-06-05T02:10:41.423Z,13.49
2017-06-05T02:11:21.829Z,13.55
2017-06-05T02:12:02.190Z,13.57
2017-06-05T02:12:42.576Z,13.5
2017-06-05T02:13:22.979Z,13.57
2017-06-05T02:14:03.426Z,13.55
2017-06-05T02:14:43.819Z,13.54
2017-06-05T02:15:24.298Z,13.58
2017-06-05T02:16:04.704Z,13.55
2017-06-05T02:16:45.111Z,13.61
2017-06-05T02:17:25.503Z,13.62
2017-06-05T02:18:05.910Z,13.6
2017-06-05T02:18:46.352Z,13.62
2017-06-05T02:19:26.763Z,13.61
2017-06-05T02:20:07.179Z,13.58
2017-06-05T02:20:47.624Z,13.61
2017-06-05T02:21:28.084Z,13.57
2017-06-05T02:22:08.416Z,13.58
2017-06-05T02:22:48.884Z,13.52
2017-06-05T02:23:29.236Z,13.5
2017-06-05T02:24:09.668Z,13.46
2017-06-05T02:24:50.124Z,13.52
2017-06-05T02:25:30.604Z,13.43
2017-06-05T02:26:11.028Z,13.46
2017-06-05T02:26:51.440Z,13.46
2017-06-05T02:27:31.795Z,13.4
2017-06-05T02:28:12.924Z,13.36
2017-06-05T02:28:52.603Z,13.33
2017-06-05T02:29:33.047Z,13.33
2017-06-05T02:30:13.427Z,13.31
2017-06-05T02:30:53.855Z,13.31
2017-06-05T02:31:34.289Z,13.36
2017-06-05T02:32:14.681Z,13.26
2017-06-05T02:32:55.098Z,13.27
2017-06-05T02:33:35.514Z,13.26
2017-06-05T02:34:15.923Z,13.19
2017-06-05T02:34:56.354Z,13.24
2017-06-05T02:35:36.772Z,13.19
2017-06-05T02:36:17.137Z,13.17
2017-06-05T02:36:57.545Z,13.16
2017-06-05T02:37:38.011Z,13.17
2017-06-05T02:38:18.383Z,13.2
2017-06-05T02:38:58.847Z,13.2
2017-06-05T02:39:39.265Z,13.19
2017-06-05T02:40:19.618Z,13.17
2017-06-05T02:41:00.031Z,13.08
2017-06-05T02:41:40.458Z,13.2
2017-06-05T02:42:20.872Z,13.03
2017-06-05T02:43:01.318Z,13.03
2017-06-05T02:43:41.667Z,13.05
2017-06-05T02:44:22.096Z,13.05
2017-06-05T02:45:02.559Z,13.11
2017-06-05T02:46:56.052Z,13.05
2017-06-05T02:47:36.347Z,13.01
2017-06-05T02:48:16.755Z,13.03
2017-06-05T02:48:57.130Z,13.01
2017-06-05T02:49:37.574Z,12.91
2017-06-05T02:50:17.946Z,12.93
2017-06-05T02:50:58.330Z,12.91
2017-06-05T02:51:38.746Z,12.9
2017-06-05T02:52:19.217Z,12.91
2017-06-05T02:52:59.582Z,12.88
2017-06-05T02:53:40.017Z,12.87
2017-06-05T02:54:20.414Z,12.87
2017-06-05T02:55:00.835Z,12.88
2017-06-05T02:55:41.212Z,12.88
2017-06-05T02:56:21.567Z,12.83
2017-06-05T02:57:02.049Z,12.88
2017-06-05T02:57:42.439Z,12.83
2017-06-05T02:58:23.181Z,12.86
2017-06-05T02:59:03.640Z,12.88
2017-06-05T02:59:44.631Z,12.86
2017-06-05T03:00:25.081Z,12.73
2017-06-05T03:01:05.605Z,12.8
2017-06-05T03:01:46.140Z,12.8
2017-06-05T03:02:26.496Z,12.72
2017-06-05T03:03:06.977Z,12.76
2017-06-05T03:03:47.358Z,12.68
2017-06-05T03:04:27.846Z,12.8
2017-06-05T03:05:08.275Z,12.62
2017-06-05T03:05:48.736Z,12.7
2017-06-05T03:06:29.831Z,12.69
2017-06-05T03:07:10.293Z,12.66
2017-06-05T03:07:50.665Z,12.65
2017-06-05T03:08:31.104Z,12.63
2017-06-05T03:09:11.798Z,12.7
2017-06-05T03:09:52.245Z,12.57
2017-06-05T03:10:32.720Z,12.72
2017-06-05T03:11:13.156Z,12.69
2017-06-05T03:11:53.584Z,12.65
2017-06-05T03:12:33.985Z,12.7
2017-06-05T03:13:14.550Z,12.8
2017-06-05T03:13:54.752Z,12.58
2017-06-05T03:14:35.122Z,12.61
2017-06-05T03:15:15.562Z,12.62
2017-06-05T03:15:56.151Z,12.58
2017-06-05T03:16:36.642Z,12.63
2017-06-05T03:17:17.499Z,12.63
2017-06-05T03:17:58.060Z,12.68
2017-06-05T03:18:38.589Z,12.62
2017-06-05T03:19:18.967Z,12.62
2017-06-05T03:19:59.415Z,12.65
2017-06-05T03:20:39.822Z,12.7
2017-06-05T03:21:20.245Z,12.62
2017-06-05T03:22:00.708Z,12.72
2017-06-05T03:22:41.188Z,12.68
2017-06-05T03:23:21.618Z,12.55
2017-06-05T03:24:02.023Z,12.65
2017-06-05T03:24:42.431Z,12.72
2017-06-05T03:25:22.831Z,12.62
2017-06-05T03:26:03.243Z,12.68
2017-06-05T03:26:43.693Z,12.63
2017-06-05T03:27:24.036Z,12.68
2017-06-05T03:28:04.691Z,12.73
2017-06-05T03:28:45.120Z,12.65
2017-06-05T03:29:25.514Z,12.54
2017-06-05T03:30:05.896Z,12.63
2017-06-05T03:30:46.341Z,12.62
2017-06-05T03:31:26.720Z,12.62
2017-06-05T03:32:07.227Z,12.62
2017-06-05T03:32:47.589Z,12.63
2017-06-05T03:33:28.006Z,12.68
2017-06-05T03:34:08.429Z,12.63
2017-06-05T03:34:48.825Z,12.63
2017-06-05T03:35:29.747Z,12.63
2017-06-05T03:36:10.098Z,12.65
2017-06-05T03:36:50.560Z,12.69
2017-06-05T03:37:30.992Z,12.73
2017-06-05T03:38:11.398Z,12.7
2017-06-05T03:38:51.819Z,12.75
2017-06-05T03:39:32.220Z,12.76
2017-06-05T03:40:12.650Z,12.76
2017-06-05T03:40:53.412Z,12.83
2017-06-05T03:41:33.907Z,12.84
2017-06-05T03:42:14.383Z,12.83
2017-06-05T03:42:54.783Z,12.78
2017-06-05T03:43:35.185Z,12.81
2017-06-05T03:44:15.669Z,12.86
2017-06-05T03:44:56.592Z,12.78
2017-06-05T03:45:36.891Z,12.83
2017-06-05T03:46:17.532Z,12.8
2017-06-05T03:46:58.350Z,12.81
2017-06-05T03:47:38.735Z,12.78
2017-06-05T03:48:19.671Z,12.76
2017-06-05T03:49:00.131Z,12.8
2017-06-05T03:49:40.570Z,12.8
2017-06-05T03:50:20.977Z,12.75
2017-06-05T03:51:01.363Z,12.78
2017-06-05T03:51:41.792Z,12.78
2017-06-05T03:52:22.335Z,12.75
2017-06-05T03:53:05.505Z,12.72
2017-06-05T03:53:46.339Z,12.78
2017-06-05T03:54:26.760Z,12.78
2017-06-05T03:55:07.237Z,12.84
2017-06-05T03:55:47.646Z,12.8
2017-06-05T03:56:28.031Z,12.78
2017-06-05T03:57:09.353Z,12.84
2017-06-05T03:57:49.802Z,12.78
2017-06-05T03:58:30.155Z,12.8
2017-06-05T03:59:10.606Z,12.83
2017-06-05T03:59:52.030Z,12.78
2017-06-05T04:00:33.365Z,12.75
2017-06-05T04:01:14.419Z,12.8
2017-06-05T04:01:55.175Z,12.78
2017-06-05T04:02:35.667Z,12.86
2017-06-05T04:04:13.808Z,12.94
2017-06-05T04:04:54.058Z,12.94
2017-06-05T04:05:34.949Z,12.98
2017-06-05T04:06:16.219Z,12.99
2017-06-05T04:06:56.094Z,13.08
2017-06-05T04:07:36.476Z,13.06
2017-06-05T04:08:16.958Z,13.16
2017-06-05T04:08:57.313Z,13.16
2017-06-05T04:09:37.990Z,13.13
2017-06-05T04:10:18.538Z,13.17
2017-06-05T04:10:59.436Z,13.27
2017-06-05T04:11:39.847Z,13.26
2017-06-05T04:12:20.272Z,13.27
2017-06-05T04:13:00.726Z,13.23
2017-06-05T04:13:41.106Z,13.37
2017-06-05T04:14:21.581Z,13.31
2017-06-05T04:15:02.030Z,13.39
2017-06-05T04:15:42.481Z,13.31
2017-06-05T04:16:22.857Z,13.43
2017-06-05T04:17:03.303Z,13.43
2017-06-05T04:17:43.688Z,13.45
2017-06-05T04:18:24.153Z,13.45
2017-06-05T04:19:04.556Z,13.45
2017-06-05T04:19:44.998Z,13.45
2017-06-05T04:20:25.417Z,13.43
2017-06-05T04:21:05.821Z,13.49
2017-06-05T04:21:46.899Z,13.5
2017-06-05T04:22:27.736Z,13.57
2017-06-05T04:23:08.209Z,13.55
2017-06-05T04:23:48.648Z,13.62
2017-06-05T04:24:29.070Z,13.64
2017-06-05T04:25:09.409Z,13.67
2017-06-05T04:25:49.881Z,13.76
2017-06-05T04:26:30.301Z,13.75
2017-06-05T04:27:10.709Z,13.73
2017-06-05T04:27:51.126Z,13.85
2017-06-05T04:28:31.608Z,13.67
2017-06-05T04:29:11.963Z,13.71
2017-06-05T04:29:52.419Z,13.85
2017-06-05T04:30:32.784Z,13.82
2017-06-05T04:31:13.213Z,13.87
2017-06-05T04:31:53.662Z,13.94
2017-06-05T04:32:34.030Z,13.94
2017-06-05T04:33:14.483Z,14.03
2017-06-05T04:33:54.928Z,14.01
2017-06-05T04:34:35.306Z,14.05
2017-06-05T04:35:15.696Z,14.11
2017-06-05T04:35:56.125Z,14.18
2017-06-05T04:36:36.546Z,14.22
2017-06-05T04:37:16.966Z,14.25
2017-06-05T04:37:57.388Z,14.33
2017-06-05T04:38:37.960Z,14.36
2017-06-05T04:39:18.396Z,14.44
2017-06-05T04:39:58.843Z,14.52
2017-06-05T04:40:39.267Z,14.61
2017-06-05T04:41:19.680Z,14.7
2017-06-05T04:42:00.041Z,14.68
2017-06-05T04:42:40.551Z,14.78
2017-06-05T04:43:20.923Z,14.81
2017-06-05T04:44:01.331Z,14.86
2017-06-05T04:44:41.749Z,14.9
2017-06-05T04:45:22.132Z,15.05
2017-06-05T04:46:02.637Z,15.08
2017-06-05T04:46:42.999Z,15.05
2017-06-05T04:47:23.385Z,15.14
2017-06-05T04:48:03.788Z,15.3
2017-06-05T04:48:44.191Z,15.33
2017-06-05T04:49:24.605Z,15.36
2017-06-05T04:50:05.008Z,15.41
2017-06-05T04:50:46.210Z,15.43
2017-06-05T04:51:26.649Z,15.5
2017-06-05T04:52:07.065Z,15.51
2017-06-05T04:52:47.483Z,15.55
2017-06-05T04:53:27.932Z,15.57
2017-06-05T04:54:08.407Z,15.72
2017-06-05T04:54:48.813Z,15.83
2017-06-05T04:55:29.240Z,15.76
2017-06-05T04:56:09.643Z,15.88
2017-06-05T04:56:50.094Z,15.9
2017-06-05T04:57:30.501Z,15.94
2017-06-05T04:58:10.899Z,15.83
2017-06-05T04:58:51.459Z,15.98
2017-06-05T04:59:31.654Z,16
2017-06-05T05:00:12.047Z,16.1
2017-06-05T05:00:53.127Z,16.17
2017-06-05T05:01:33.505Z,16.24
2017-06-05T05:02:13.908Z,16.24
2017-06-05T05:02:54.291Z,16.32
2017-06-05T05:03:34.741Z,16.39
2017-06-05T05:04:15.208Z,16.4
2017-06-05T05:04:55.595Z,16.44
2017-06-05T05:05:36.052Z,16.44
2017-06-05T05:06:16.423Z,16.54
2017-06-05T05:06:56.889Z,16.49
2017-06-05T05:07:37.242Z,16.58
2017-06-05T05:08:17.675Z,16.62
2017-06-05T05:08:58.124Z,16.58
2017-06-05T05:09:38.510Z,16.68
2017-06-05T05:10:18.916Z,16.69
2017-06-05T05:10:59.309Z,16.66
2017-06-05T05:11:39.730Z,16.79
2017-06-05T05:12:20.118Z,16.8
2017-06-05T05:13:00.525Z,16.92
2017-06-05T05:13:40.923Z,16.91
2017-06-05T05:14:21.365Z,16.98
2017-06-05T05:15:01.767Z,16.98
2017-06-05T05:15:42.163Z,17.12
2017-06-05T05:16:22.606Z,17.02
2017-06-05T05:17:02.995Z,17.12
2017-06-05T05:17:43.416Z,17.1
2017-06-05T05:18:23.820Z,17.12
2017-06-05T05:19:04.217Z,17.16
2017-06-05T05:19:44.673Z,17.1
2017-06-05T05:20:25.065Z,17.13
2017-06-05T05:21:05.474Z,17.19
2017-06-05T05:21:45.913Z,17.16
2017-06-05T05:22:26.304Z,17.13
2017-06-05T05:23:06.804Z,17.1
2017-06-05T05:23:47.208Z,17.14
2017-06-05T05:24:27.583Z,17.07
2017-06-05T05:25:08.001Z,17.13
2017-06-05T05:25:48.588Z,17.09
2017-06-05T05:26:28.994Z,17.14
2017-06-05T05:27:09.388Z,17.07
2017-06-05T05:27:49.821Z,17.17
2017-06-05T05:28:30.259Z,17.17
2017-06-05T05:29:10.646Z,17.2
2017-06-05T05:29:56.419Z,17.23
2017-06-05T05:30:37.419Z,17.28
2017-06-05T05:31:18.835Z,17.27
2017-06-05T05:31:59.338Z,17.44
2017-06-05T05:32:39.652Z,17.46
2017-06-05T05:33:20.095Z,17.47
2017-06-05T05:34:00.500Z,17.46
2017-06-05T05:34:40.896Z,17.56
2017-06-05T05:35:21.314Z,17.54
2017-06-05T05:36:01.689Z,17.63
2017-06-05T05:36:42.105Z,17.6
2017-06-05T05:37:22.505Z,17.59
2017-06-05T05:38:02.880Z,17.52
2017-06-05T05:38:43.312Z,17.49
2017-06-05T05:39:23.793Z,17.54
2017-06-05T05:40:04.126Z,17.49
2017-06-05T05:40:44.551Z,17.5
2017-06-05T05:41:24.964Z,17.56
2017-06-05T05:42:05.356Z,17.5
2017-06-05T05:42:45.770Z,17.47
2017-06-05T05:43:26.178Z,17.54
2017-06-05T05:44:06.764Z,17.53
2017-06-05T05:44:47.184Z,17.49
2017-06-05T05:45:27.599Z,17.65
2017-06-05T05:46:07.986Z,17.6
2017-06-05T05:46:48.388Z,17.65
2017-06-05T05:47:28.840Z,17.66
2017-06-05T05:48:09.242Z,17.69
2017-06-05T05:48:49.636Z,17.79
2017-06-05T05:49:30.056Z,17.87
2017-06-05T05:50:10.483Z,17.88
2017-06-05T05:50:50.841Z,17.9
2017-06-05T05:51:31.274Z,17.97
2017-06-05T05:52:13.360Z,17.91
2017-06-05T05:52:53.755Z,17.95
2017-06-05T05:53:34.166Z,18.11
2017-06-05T05:54:14.539Z,18.06
2017-06-05T05:54:54.986Z,18.21
2017-06-05T05:55:35.402Z,18.3
2017-06-05T05:56:15.817Z,18.3
2017-06-05T05:56:56.187Z,18.45
2017-06-05T05:57:36.594Z,18.42
2017-06-05T05:58:17.021Z,18.42
2017-06-05T05:58:57.421Z,18.58
2017-06-05T05:59:37.837Z,18.66
2017-06-05T06:00:18.230Z,18.68
2017-06-05T06:00:58.679Z,18.6
2017-06-05T06:01:39.100Z,18.74
2017-06-05T06:02:20.062Z,18.7
2017-06-05T06:03:01.033Z,18.68
2017-06-05T06:03:42.084Z,18.7
2017-06-05T06:04:22.490Z,18.74
2017-06-05T06:05:02.920Z,18.71
2017-06-05T06:05:43.280Z,18.76
2017-06-05T06:06:23.726Z,18.76
2017-06-05T06:07:05.074Z,18.79
2017-06-05T06:07:45.512Z,18.85
2017-06-05T06:08:25.948Z,18.86
2017-06-05T06:09:06.424Z,18.91
2017-06-05T06:09:46.773Z,18.96
2017-06-05T06:10:27.286Z,18.98
2017-06-05T06:11:10.008Z,18.92
2017-06-05T06:13:10.886Z,18.94
2017-06-05T06:13:56.608Z,18.94
2017-06-05T06:14:43.029Z,18.92
2017-06-05T06:15:23.991Z,18.88
2017-06-05T06:16:04.429Z,18.79
2017-06-05T06:16:44.863Z,18.81
2017-06-05T06:17:25.299Z,18.71
2017-06-05T06:18:05.722Z,18.67
2017-06-05T06:18:46.170Z,18.74
2017-06-05T06:19:26.695Z,18.7
2017-06-05T06:20:06.978Z,18.57
2017-06-05T06:20:47.388Z,18.78
2017-06-05T06:21:27.777Z,18.71
2017-06-05T06:22:08.142Z,18.73
2017-06-05T06:22:48.589Z,18.76
2017-06-05T06:23:28.980Z,18.83
2017-06-05T06:24:09.494Z,18.88
2017-06-05T06:24:49.812Z,18.96
2017-06-05T06:25:30.263Z,19
2017-06-05T06:26:10.659Z,19.08
2017-06-05T06:26:51.065Z,19.29
2017-06-05T06:27:31.457Z,19.37
2017-06-05T06:28:11.905Z,19.35
2017-06-05T06:28:52.315Z,19.38
2017-06-05T06:29:32.682Z,19.59
2017-06-05T06:30:13.140Z,19.6
2017-06-05T06:30:53.544Z,19.56
2017-06-05T06:31:34.162Z,19.67
2017-06-05T06:32:14.611Z,19.64
2017-06-05T06:32:55.115Z,19.63
2017-06-05T06:33:35.546Z,19.78
2017-06-05T06:34:16.298Z,19.84
2017-06-05T06:34:56.744Z,19.93
2017-06-05T06:35:37.106Z,20.02
2017-06-05T06:36:17.580Z,20.11
2017-06-05T06:36:58.028Z,20.1
2017-06-05T06:37:38.458Z,20.08
2017-06-05T06:38:18.906Z,20.03
2017-06-05T06:39:00.987Z,20.04
2017-06-05T06:39:41.301Z,20.27
2017-06-05T06:40:22.515Z,20.3
2017-06-05T06:41:03.756Z,20.49
2017-06-05T06:41:44.408Z,20.59
2017-06-05T06:42:24.542Z,20.66
2017-06-05T06:43:04.962Z,20.74
2017-06-05T06:43:45.391Z,20.83
2017-06-05T06:44:26.654Z,20.88
2017-06-05T06:45:08.166Z,20.88
2017-06-05T06:45:52.413Z,21.01
2017-06-05T06:46:34.450Z,21.04
2017-06-05T06:47:15.765Z,21.05
2017-06-05T06:47:56.125Z,21.07
2017-06-05T06:48:36.543Z,21.08
2017-06-05T06:49:17.078Z,21.14
2017-06-05T06:49:57.496Z,21.14
2017-06-05T06:50:38.336Z,21.19
2017-06-05T06:51:20.131Z,21.23
2017-06-05T06:52:02.150Z,21.29
2017-06-05T06:52:44.197Z,21.45
2017-06-05T06:53:25.381Z,21.5
2017-06-05T06:54:05.806Z,21.56
2017-06-05T06:54:46.312Z,21.65
2017-06-05T06:55:26.708Z,21.69
2017-06-05T06:56:07.151Z,21.77
2017-06-05T06:56:47.528Z,21.74
2017-06-05T06:57:28.553Z,21.88
2017-06-05T06:58:09.501Z,21.89
2017-06-05T06:58:49.888Z,21.97
2017-06-05T06:59:30.998Z,22.07
2017-06-05T07:00:12.108Z,22.03
2017-06-05T07:00:52.450Z,22.22
2017-06-05T07:01:32.890Z,22.26
2017-06-05T07:02:13.252Z,22.23
2017-06-05T07:02:54.750Z,22.34
2017-06-05T07:03:35.153Z,22.4
2017-06-05T07:04:18.363Z,22.55
2017-06-05T07:04:58.822Z,22.56
2017-06-05T07:05:39.220Z,22.53
2017-06-05T07:06:19.602Z,22.65
2017-06-05T07:06:59.982Z,22.53
2017-06-05T07:07:40.455Z,22.59
2017-06-05T07:08:20.838Z,22.44
2017-06-05T07:09:01.316Z,22.55
2017-06-05T07:09:41.789Z,22.53
2017-06-05T07:10:22.218Z,22.44
2017-06-05T07:11:02.597Z,22.63
2017-06-05T07:11:42.998Z,22.7
2017-06-05T07:12:23.408Z,22.84
2017-06-05T07:13:03.803Z,22.96
2017-06-05T07:13:44.219Z,23.11
2017-06-05T07:14:24.662Z,23.45
2017-06-05T07:15:05.001Z,23.7
2017-06-05T07:15:45.407Z,23.92
2017-06-05T07:16:25.809Z,24.37
2017-06-05T07:17:06.300Z,24.89
2017-06-05T07:17:46.629Z,25.36
2017-06-05T07:18:27.077Z,25.74
2017-06-05T07:19:07.494Z,26.3
2017-06-05T07:19:48.324Z,26.86
2017-06-05T07:20:28.738Z,27.33
2017-06-05T07:21:09.167Z,27.64
2017-06-05T07:21:49.559Z,27.95
2017-06-05T07:22:29.976Z,28.35
2017-06-05T07:23:10.399Z,28.67
2017-06-05T07:23:50.827Z,28.9
2017-06-05T07:24:31.275Z,29.18
2017-06-05T07:25:12.663Z,29.46
2017-06-05T07:25:52.903Z,29.64
2017-06-05T07:26:33.370Z,29.84
2017-06-05T07:27:13.820Z,30.08
2017-06-05T07:27:54.259Z,30.38
2017-06-05T07:28:34.639Z,30.67
2017-06-05T07:29:15.294Z,30.92
2017-06-05T07:29:55.705Z,31.04
2017-06-05T07:30:36.464Z,31.26
2017-06-05T07:31:17.113Z,31.45
2017-06-05T07:31:57.543Z,31.72
2017-06-05T07:32:38.072Z,31.86
2017-06-05T07:33:19.031Z,32.07
2017-06-05T07:33:59.456Z,32.2
2017-06-05T07:34:39.800Z,32.48
2017-06-05T07:35:20.211Z,32.59
2017-06-05T07:36:02.503Z,32.76
2017-06-05T07:36:42.925Z,32.81
2017-06-05T07:37:23.347Z,32.79
2017-06-05T07:38:03.740Z,32.82
2017-06-05T07:38:44.154Z,32.85
2017-06-05T07:39:24.564Z,32.79
2017-06-05T07:40:04.990Z,32.91
2017-06-05T07:40:45.808Z,32.88
2017-06-05T07:41:26.151Z,32.73
2017-06-05T07:42:06.552Z,32.46
2017-06-05T07:42:46.997Z,32.46
2017-06-05T07:43:27.570Z,32.38
2017-06-05T07:44:07.960Z,32.11
2017-06-05T07:44:48.349Z,31.81
2017-06-05T07:45:28.831Z,31.57
2017-06-05T07:46:09.262Z,31.22
2017-06-05T07:46:49.802Z,31.07
2017-06-05T07:47:31.411Z,30.77
2017-06-05T07:48:12.193Z,30.74
2017-06-05T07:48:52.672Z,30.77
2017-06-05T07:49:32.972Z,30.85
2017-06-05T07:50:13.889Z,30.74
2017-06-05T07:50:54.371Z,30.67
2017-06-05T07:51:35.063Z,30.56
2017-06-05T07:52:16.807Z,30.56
2017-06-05T07:52:57.304Z,30.46
2017-06-05T07:53:37.902Z,30.4
2017-06-05T07:54:19.122Z,30.56
2017-06-05T07:54:59.586Z,30.49
2017-06-05T07:55:39.987Z,30.48
2017-06-05T07:56:22.003Z,30.55
2017-06-05T07:57:03.307Z,30.63
2017-06-05T07:57:43.937Z,30.74
2017-06-05T07:58:25.467Z,30.73
2017-06-05T07:59:05.243Z,30.67
2017-06-05T07:59:46.326Z,30.69
2017-06-05T08:00:31.277Z,30.61
2017-06-05T08:01:12.911Z,30.65
2017-06-05T08:01:54.256Z,30.74
2017-06-05T08:02:35.423Z,30.76
2017-06-05T08:03:16.974Z,30.76
2017-06-05T08:04:00.061Z,30.78
2017-06-05T08:04:42.080Z,30.83
2017-06-05T08:05:22.833Z,30.67
2017-06-05T08:06:07.940Z,30.59
2017-06-05T08:06:51.434Z,30.52
2017-06-05T08:07:32.694Z,30.44
2017-06-05T08:08:12.866Z,30.44
2017-06-05T08:08:54.962Z,30.55
2017-06-05T08:09:35.196Z,30.44
2017-06-05T08:10:16.871Z,30.49
2017-06-05T08:11:00.080Z,30.58
2017-06-05T08:11:52.258Z,30.74
2017-06-05T08:12:32.652Z,31.02
2017-06-05T08:13:13.913Z,31.18
2017-06-05T08:14:02.103Z,31.33
2017-06-05T08:15:52.122Z,31.55
2017-06-05T08:16:40.227Z,31.63
2017-06-05T08:17:26.444Z,31.72
2017-06-05T08:18:07.279Z,31.72
2017-06-05T08:18:47.713Z,31.82
2017-06-05T08:19:28.255Z,31.97
2017-06-05T08:20:08.751Z,32.17
2017-06-05T08:21:59.681Z,32.9
2017-06-05T08:22:48.913Z,33.23
2017-06-05T08:23:37.705Z,33.65
2017-06-05T08:24:26.029Z,34.14
2017-06-05T08:25:14.690Z,34.43
2017-06-05T08:26:03.986Z,34.81
2017-06-05T08:26:53.109Z,35.27
2017-06-05T08:27:40.109Z,35.6
2017-06-05T08:28:27.379Z,35.79
2017-06-05T08:29:16.105Z,36.14
2017-06-05T08:29:56.479Z,36.32
2017-06-05T08:30:36.901Z,36.55
2017-06-05T08:31:17.315Z,36.76
2017-06-05T08:31:58.417Z,37.01
2017-06-05T08:32:38.817Z,37.21
2017-06-05T08:33:19.279Z,37.37
2017-06-05T08:33:59.703Z,37.6
2017-06-05T08:34:41.253Z,37.79
2017-06-05T08:35:21.796Z,38.02
2017-06-05T08:36:02.516Z,38.2
2017-06-05T08:36:42.971Z,38.36
2017-06-05T08:37:23.361Z,38.57
2017-06-05T08:38:03.996Z,38.65
2017-06-05T08:38:45.111Z,38.76
2017-06-05T08:39:26.581Z,38.92
2017-06-05T08:40:07.069Z,39.15
2017-06-05T08:40:48.384Z,39.17
2017-06-05T08:41:28.902Z,39.42
2017-06-05T08:42:09.294Z,39.66
2017-06-05T08:42:49.722Z,39.8
2017-06-05T08:43:30.153Z,40.04
2017-06-05T08:44:10.525Z,40.23
2017-06-05T08:44:51.963Z,40.52
2017-06-05T08:45:33.257Z,40.66
2017-06-05T08:46:13.647Z,40.77
2017-06-05T08:46:54.092Z,40.89
2017-06-05T08:47:35.224Z,41.07
2017-06-05T08:48:15.674Z,41
2017-06-05T08:48:56.103Z,41.12
2017-06-05T08:49:36.524Z,41.27
2017-06-05T08:50:18.851Z,41.37
2017-06-05T08:50:58.593Z,41.29
2017-06-05T08:51:39.034Z,41.49
2017-06-05T08:52:20.595Z,41.55
2017-06-05T08:53:01.423Z,41.67
2017-06-05T08:53:41.870Z,41.76